sensor_id;sensor_type;location;lat;lon;timestamp;pressure;altitude;pressure_sealevel;temperature;humidity
72721;BME280;60835;50.974;10.322;2024-02-26T00:01:59;96752.28;;;2.11;100.00
72721;BME280;60835;50.974;10.322;2024-02-26T00:04:26;96740.50;;;2.07;100.00
72721;BME280;60835;50.974;10.322;2024-02-26T00:06:52;96735.28;;;2.07;100.00
72721;BME280;60835;50.974;10.322;2024-02-26T00:09:21;96719.66;;;1.98;100.00
72721;BME280;60835;50.974;10.322;2024-02-26T00:11:48;96705.91;;;2.05;100.00
72721;BME280;60835;50.974;10.322;2024-02-26T00:14:14;96716.34;;;2.05;100.00
72721;BME280;60835;50.974;10.322;2024-02-26T00:16:43;96724.72;;;2.09;100.00
72721;BME280;60835;50.974;10.322;2024-02-26T00:19:11;96714.41;;;2.07;100.00
72721;BME280;60835;50.974;10.322;2024-02-26T00:21:41;96708.25;;;2.08;100.00
72721;BME280;60835;50.974;10.322;2024-02-26T00:24:08;96703.75;;;1.91;100.00
72721;BME280;60835;50.974;10.322;2024-02-26T00:26:35;96702.66;;;1.94;100.00
72721;BME280;60835;50.974;10.322;2024-02-26T00:29:02;96710.47;;;2.03;100.00
72721;BME280;60835;50.974;10.322;2024-02-26T00:31:29;96728.13;;;2.09;100.00
72721;BME280;60835;50.974;10.322;2024-02-26T00:33:55;96724.00;;;2.07;100.00
72721;BME280;60835;50.974;10.322;2024-02-26T00:36:22;96726.50;;;2.08;100.00
72721;BME280;60835;50.974;10.322;2024-02-26T00:38:49;96722.22;;;2.07;100.00
72721;BME280;60835;50.974;10.322;2024-02-26T00:41:18;96708.25;;;2.08;100.00
72721;BME280;60835;50.974;10.322;2024-02-26T00:43:45;96720.72;;;2.14;100.00
72721;BME280;60835;50.974;10.322;2024-02-26T00:46:11;96709.84;;;2.09;100.00
72721;BME280;60835;50.974;10.322;2024-02-26T00:48:38;96669.75;;;1.93;100.00
72721;BME280;60835;50.974;10.322;2024-02-26T00:51:05;96706.13;;;2.21;100.00
72721;BME280;60835;50.974;10.322;2024-02-26T00:53:33;96691.53;;;2.01;100.00
72721;BME280;60835;50.974;10.322;2024-02-26T00:56:00;96703.19;;;1.97;100.00
72721;BME280;60835;50.974;10.322;2024-02-26T00:58:27;96684.19;;;1.77;100.00
72721;BME280;60835;50.974;10.322;2024-02-26T01:00:53;96689.22;;;1.98;100.00
72721;BME280;60835;50.974;10.322;2024-02-26T01:03:20;96698.31;;;1.75;100.00
72721;BME280;60835;50.974;10.322;2024-02-26T01:05:47;96674.75;;;1.76;100.00
72721;BME280;60835;50.974;10.322;2024-02-26T01:08:14;96687.88;;;1.84;100.00
72721;BME280;60835;50.974;10.322;2024-02-26T01:10:41;96677.84;;;1.90;100.00
72721;BME280;60835;50.974;10.322;2024-02-26T01:13:08;96683.28;;;1.96;100.00
72721;BME280;60835;50.974;10.322;2024-02-26T01:15:34;96684.44;;;1.84;100.00
72721;BME280;60835;50.974;10.322;2024-02-26T01:18:01;96701.13;;;1.64;100.00
72721;BME280;60835;50.974;10.322;2024-02-26T01:20:28;96681.63;;;1.68;100.00
72721;BME280;60835;50.974;10.322;2024-02-26T01:22:55;96684.84;;;1.89;100.00
72721;BME280;60835;50.974;10.322;2024-02-26T01:25:22;96669.75;;;1.83;100.00
72721;BME280;60835;50.974;10.322;2024-02-26T01:27:48;96657.09;;;1.61;100.00
72721;BME280;60835;50.974;10.322;2024-02-26T01:30:15;96707.41;;;1.71;100.00
72721;BME280;60835;50.974;10.322;2024-02-26T01:32:43;96701.78;;;1.66;100.00
72721;BME280;60835;50.974;10.322;2024-02-26T01:35:10;96713.22;;;1.46;100.00
72721;BME280;60835;50.974;10.322;2024-02-26T01:37:38;96668.25;;;1.44;100.00
72721;BME280;60835;50.974;10.322;2024-02-26T01:40:05;96689.19;;;1.52;100.00
72721;BME280;60835;50.974;10.322;2024-02-26T01:42:33;96678.91;;;1.60;100.00
72721;BME280;60835;50.974;10.322;2024-02-26T01:45:00;96666.78;;;1.32;100.00
72721;BME280;60835;50.974;10.322;2024-02-26T01:47:41;96656.47;;;1.40;100.00
72721;BME280;60835;50.974;10.322;2024-02-26T01:50:14;96667.16;;;1.37;100.00
72721;BME280;60835;50.974;10.322;2024-02-26T01:52:45;96649.16;;;1.53;100.00
72721;BME280;60835;50.974;10.322;2024-02-26T01:55:14;96644.66;;;1.36;100.00
72721;BME280;60835;50.974;10.322;2024-02-26T01:57:43;96635.91;;;1.37;100.00
72721;BME280;60835;50.974;10.322;2024-02-26T02:00:12;96633.19;;;1.29;100.00
72721;BME280;60835;50.974;10.322;2024-02-26T02:02:45;96635.94;;;1.27;100.00
72721;BME280;60835;50.974;10.322;2024-02-26T02:05:16;96625.91;;;1.22;100.00
72721;BME280;60835;50.974;10.322;2024-02-26T02:07:45;96623.91;;;1.16;100.00
72721;BME280;60835;50.974;10.322;2024-02-26T02:10:15;96629.09;;;1.16;100.00
72721;BME280;60835;50.974;10.322;2024-02-26T02:12:45;96615.63;;;1.31;100.00
72721;BME280;60835;50.974;10.322;2024-02-26T02:15:12;96619.16;;;1.39;100.00
72721;BME280;60835;50.974;10.322;2024-02-26T02:17:40;96618.56;;;1.55;100.00
72721;BME280;60835;50.974;10.322;2024-02-26T02:20:18;96617.22;;;1.51;100.00
72721;BME280;60835;50.974;10.322;2024-02-26T02:22:46;96618.97;;;1.60;100.00
72721;BME280;60835;50.974;10.322;2024-02-26T02:25:13;96626.78;;;1.60;100.00
72721;BME280;60835;50.974;10.322;2024-02-26T02:27:42;96626.50;;;1.63;100.00
72721;BME280;60835;50.974;10.322;2024-02-26T02:30:12;96640.69;;;1.51;100.00
72721;BME280;60835;50.974;10.322;2024-02-26T02:32:40;96628.38;;;1.34;100.00
72721;BME280;60835;50.974;10.322;2024-02-26T02:35:11;96643.41;;;1.59;100.00
72721;BME280;60835;50.974;10.322;2024-02-26T02:37:38;96638.84;;;1.61;100.00
72721;BME280;60835;50.974;10.322;2024-02-26T02:40:06;96667.41;;;1.53;100.00
72721;BME280;60835;50.974;10.322;2024-02-26T02:42:33;96668.22;;;1.53;100.00
72721;BME280;60835;50.974;10.322;2024-02-26T02:45:02;96677.59;;;1.37;100.00
72721;BME280;60835;50.974;10.322;2024-02-26T02:47:29;96676.53;;;1.30;100.00
72721;BME280;60835;50.974;10.322;2024-02-26T02:49:56;96658.31;;;1.57;100.00
72721;BME280;60835;50.974;10.322;2024-02-26T02:52:23;96653.50;;;1.62;100.00
72721;BME280;60835;50.974;10.322;2024-02-26T02:54:55;96659.19;;;1.48;100.00
72721;BME280;60835;50.974;10.322;2024-02-26T02:57:22;96661.31;;;1.62;100.00
72721;BME280;60835;50.974;10.322;2024-02-26T02:59:49;96671.25;;;1.49;100.00
72721;BME280;60835;50.974;10.322;2024-02-26T03:02:18;96662.72;;;1.56;100.00
72721;BME280;60835;50.974;10.322;2024-02-26T03:04:47;96675.91;;;1.55;100.00
72721;BME280;60835;50.974;10.322;2024-02-26T03:07:14;96678.09;;;1.50;100.00
72721;BME280;60835;50.974;10.322;2024-02-26T03:09:42;96676.19;;;1.52;100.00
72721;BME280;60835;50.974;10.322;2024-02-26T03:12:09;96675.66;;;1.48;100.00
72721;BME280;60835;50.974;10.322;2024-02-26T03:14:36;96663.13;;;1.61;100.00
72721;BME280;60835;50.974;10.322;2024-02-26T03:17:11;96656.94;;;1.72;100.00
72721;BME280;60835;50.974;10.322;2024-02-26T03:19:39;96659.69;;;1.61;100.00
72721;BME280;60835;50.974;10.322;2024-02-26T03:22:07;96650.28;;;1.50;100.00
72721;BME280;60835;50.974;10.322;2024-02-26T03:24:40;96657.53;;;1.47;100.00
72721;BME280;60835;50.974;10.322;2024-02-26T03:27:07;96658.06;;;1.60;100.00
72721;BME280;60835;50.974;10.322;2024-02-26T03:29:40;96660.22;;;1.74;100.00
72721;BME280;60835;50.974;10.322;2024-02-26T03:32:10;96657.72;;;1.82;100.00
72721;BME280;60835;50.974;10.322;2024-02-26T03:34:40;96661.72;;;1.67;100.00
72721;BME280;60835;50.974;10.322;2024-02-26T03:37:08;96666.25;;;1.65;100.00
72721;BME280;60835;50.974;10.322;2024-02-26T03:39:40;96658.88;;;1.60;100.00
72721;BME280;60835;50.974;10.322;2024-02-26T03:42:08;96652.00;;;1.69;100.00
72721;BME280;60835;50.974;10.322;2024-02-26T03:44:36;96648.59;;;1.59;100.00
72721;BME280;60835;50.974;10.322;2024-02-26T03:47:03;96637.75;;;1.63;100.00
72721;BME280;60835;50.974;10.322;2024-02-26T03:49:30;96649.38;;;1.69;100.00
72721;BME280;60835;50.974;10.322;2024-02-26T03:51:57;96647.91;;;1.57;100.00
72721;BME280;60835;50.974;10.322;2024-02-26T03:54:24;96650.78;;;1.54;100.00
72721;BME280;60835;50.974;10.322;2024-02-26T03:56:50;96644.06;;;1.61;100.00
72721;BME280;60835;50.974;10.322;2024-02-26T03:59:23;96631.03;;;1.61;100.00
72721;BME280;60835;50.974;10.322;2024-02-26T04:01:58;96617.22;;;1.51;100.00
72721;BME280;60835;50.974;10.322;2024-02-26T04:04:28;96647.63;;;1.60;100.00
72721;BME280;60835;50.974;10.322;2024-02-26T04:06:57;96646.94;;;1.58;100.00
72721;BME280;60835;50.974;10.322;2024-02-26T04:09:27;96645.69;;;1.62;100.00
72721;BME280;60835;50.974;10.322;2024-02-26T04:11:57;96624.28;;;1.68;100.00
72721;BME280;60835;50.974;10.322;2024-02-26T04:14:47;96619.81;;;1.88;100.00
72721;BME280;60835;50.974;10.322;2024-02-26T04:17:14;96615.28;;;2.07;100.00
72721;BME280;60835;50.974;10.322;2024-02-26T04:19:49;96626.84;;;2.05;100.00
72721;BME280;60835;50.974;10.322;2024-02-26T04:22:19;96617.72;;;2.18;100.00
72721;BME280;60835;50.974;10.322;2024-02-26T04:24:47;96636.34;;;1.96;100.00
72721;BME280;60835;50.974;10.322;2024-02-26T04:27:14;96654.44;;;1.80;100.00
72721;BME280;60835;50.974;10.322;2024-02-26T04:29:45;96662.13;;;1.72;100.00
72721;BME280;60835;50.974;10.322;2024-02-26T04:32:29;96657.22;;;1.69;100.00
72721;BME280;60835;50.974;10.322;2024-02-26T04:34:56;96656.94;;;1.72;100.00
72721;BME280;60835;50.974;10.322;2024-02-26T04:37:29;96656.66;;;1.65;100.00
72721;BME280;60835;50.974;10.322;2024-02-26T04:40:10;96663.47;;;1.76;100.00
72721;BME280;60835;50.974;10.322;2024-02-26T04:43:10;96667.91;;;1.66;100.00
72721;BME280;60835;50.974;10.322;2024-02-26T04:45:55;96666.81;;;1.68;100.00
72721;BME280;60835;50.974;10.322;2024-02-26T04:48:25;96661.31;;;1.62;100.00
72721;BME280;60835;50.974;10.322;2024-02-26T04:50:57;96674.63;;;1.68;100.00
72721;BME280;60835;50.974;10.322;2024-02-26T04:53:25;96671.97;;;1.78;100.00
72721;BME280;60835;50.974;10.322;2024-02-26T04:55:52;96668.66;;;1.85;100.00
72721;BME280;60835;50.974;10.322;2024-02-26T04:58:25;96677.69;;;1.91;100.00
72721;BME280;60835;50.974;10.322;2024-02-26T05:00:53;96672.75;;;1.88;100.00
72721;BME280;60835;50.974;10.322;2024-02-26T05:03:20;96677.56;;;1.93;100.00
72721;BME280;60835;50.974;10.322;2024-02-26T05:05:50;96688.28;;;1.90;100.00
72721;BME280;60835;50.974;10.322;2024-02-26T05:09:00;96679.19;;;1.94;100.00
72721;BME280;60835;50.974;10.322;2024-02-26T05:11:34;96686.97;;;2.03;100.00
72721;BME280;60835;50.974;10.322;2024-02-26T05:14:02;96692.88;;;2.05;100.00
72721;BME280;60835;50.974;10.322;2024-02-26T05:16:32;96691.22;;;2.04;100.00
72721;BME280;60835;50.974;10.322;2024-02-26T05:19:03;96682.25;;;2.16;100.00
72721;BME280;60835;50.974;10.322;2024-02-26T05:21:37;96692.44;;;2.10;100.00
72721;BME280;60835;50.974;10.322;2024-02-26T05:24:05;96686.97;;;2.03;100.00
72721;BME280;60835;50.974;10.322;2024-02-26T05:26:40;96676.28;;;2.06;100.00
72721;BME280;60835;50.974;10.322;2024-02-26T05:29:09;96693.16;;;2.02;100.00
72721;BME280;60835;50.974;10.322;2024-02-26T05:31:39;96665.09;;;1.87;100.00
72721;BME280;60835;50.974;10.322;2024-02-26T05:34:06;96690.25;;;2.05;100.00
72721;BME280;60835;50.974;10.322;2024-02-26T05:37:00;96675.38;;;2.15;100.00
72721;BME280;60835;50.974;10.322;2024-02-26T05:39:27;96671.53;;;2.19;100.00
72721;BME280;60835;50.974;10.322;2024-02-26T05:41:54;96665.72;;;2.25;100.00
72721;BME280;60835;50.974;10.322;2024-02-26T05:44:22;96656.28;;;2.15;100.00
72721;BME280;60835;50.974;10.322;2024-02-26T05:46:53;96669.97;;;1.99;100.00
72721;BME280;60835;50.974;10.322;2024-02-26T05:49:21;96668.13;;;2.09;100.00
72721;BME280;60835;50.974;10.322;2024-02-26T05:52:05;96661.47;;;1.97;100.00
72721;BME280;60835;50.974;10.322;2024-02-26T05:54:35;96671.44;;;2.11;100.00
72721;BME280;60835;50.974;10.322;2024-02-26T05:57:02;96671.34;;;2.03;100.00
72721;BME280;60835;50.974;10.322;2024-02-26T05:59:32;96658.69;;;2.08;100.00
72721;BME280;60835;50.974;10.322;2024-02-26T06:02:03;96666.69;;;1.97;100.00
72721;BME280;60835;50.974;10.322;2024-02-26T06:04:36;96668.56;;;2.05;100.00
72721;BME280;60835;50.974;10.322;2024-02-26T06:07:04;96673.28;;;2.01;100.00
72721;BME280;60835;50.974;10.322;2024-02-26T06:10:17;96672.84;;;2.06;100.00
72721;BME280;60835;50.974;10.322;2024-02-26T06:12:27;96656.81;;;2.01;100.00
72721;BME280;60835;50.974;10.322;2024-02-26T06:14:59;96674.72;;;2.13;100.00
72721;BME280;60835;50.974;10.322;2024-02-26T06:17:28;96674.81;;;2.21;100.00
72721;BME280;60835;50.974;10.322;2024-02-26T06:19:56;96685.69;;;2.17;100.00
72721;BME280;60835;50.974;10.322;2024-02-26T06:22:29;96688.53;;;2.23;100.00
72721;BME280;60835;50.974;10.322;2024-02-26T06:25:08;96681.38;;;2.25;100.00
72721;BME280;60835;50.974;10.322;2024-02-26T06:27:36;96679.94;;;2.40;100.00
72721;BME280;60835;50.974;10.322;2024-02-26T06:30:03;96680.50;;;2.34;100.00
72721;BME280;60835;50.974;10.322;2024-02-26T06:32:31;96682.94;;;2.18;100.00
72721;BME280;60835;50.974;10.322;2024-02-26T06:34:58;96684.13;;;2.24;100.00
72721;BME280;60835;50.974;10.322;2024-02-26T06:37:31;96675.56;;;2.31;100.00
72721;BME280;60835;50.974;10.322;2024-02-26T06:40:08;96678.28;;;2.39;100.00
72721;BME280;60835;50.974;10.322;2024-02-26T06:42:40;96680.44;;;2.44;100.00
72721;BME280;60835;50.974;10.322;2024-02-26T06:45:15;96688.25;;;2.26;100.00
72721;BME280;60835;50.974;10.322;2024-02-26T06:47:47;96683.84;;;2.27;100.00
72721;BME280;60835;50.974;10.322;2024-02-26T06:50:15;96681.84;;;2.38;100.00
72721;BME280;60835;50.974;10.322;2024-02-26T06:52:45;96684.78;;;2.53;100.00
72721;BME280;60835;50.974;10.322;2024-02-26T06:55:24;96703.31;;;2.32;100.00
72721;BME280;60835;50.974;10.322;2024-02-26T06:57:53;96697.81;;;2.35;100.00
72721;BME280;60835;50.974;10.322;2024-02-26T07:00:21;96703.81;;;2.36;100.00
72721;BME280;60835;50.974;10.322;2024-02-26T07:02:58;96706.16;;;2.39;100.00
72721;BME280;60835;50.974;10.322;2024-02-26T07:05:37;96703.03;;;2.35;100.00
72721;BME280;60835;50.974;10.322;2024-02-26T07:08:06;96697.66;;;2.37;100.00
72721;BME280;60835;50.974;10.322;2024-02-26T07:11:19;96707.66;;;2.41;100.00
72721;BME280;60835;50.974;10.322;2024-02-26T07:14:13;96698.66;;;2.54;100.00
72721;BME280;60835;50.974;10.322;2024-02-26T07:19:59;96712.44;;;2.46;100.00
72721;BME280;60835;50.974;10.322;2024-02-26T07:22:33;96693.28;;;2.73;100.00
72721;BME280;60835;50.974;10.322;2024-02-26T07:25:00;96713.72;;;2.60;100.00
72721;BME280;60835;50.974;10.322;2024-02-26T07:27:37;96701.91;;;2.83;100.00
72721;BME280;60835;50.974;10.322;2024-02-26T07:30:28;96709.00;;;2.90;100.00
72721;BME280;60835;50.974;10.322;2024-02-26T07:32:55;96714.59;;;2.78;100.00
72721;BME280;60835;50.974;10.322;2024-02-26T07:38:16;96705.63;;;2.98;100.00
72721;BME280;60835;50.974;10.322;2024-02-26T07:41:12;96717.03;;;2.97;100.00
72721;BME280;60835;50.974;10.322;2024-02-26T07:43:48;96682.13;;;2.80;100.00
72721;BME280;60835;50.974;10.322;2024-02-26T07:46:19;96742.19;;;2.98;100.00
72721;BME280;60835;50.974;10.322;2024-02-26T07:49:03;96720.59;;;3.31;100.00
72721;BME280;60835;50.974;10.322;2024-02-26T07:51:36;96744.50;;;3.19;100.00
72721;BME280;60835;50.974;10.322;2024-02-26T07:54:08;96737.06;;;3.41;100.00
72721;BME280;60835;50.974;10.322;2024-02-26T07:57:14;96739.47;;;3.60;100.00
72721;BME280;60835;50.974;10.322;2024-02-26T07:59:53;96755.63;;;3.82;100.00
72721;BME280;60835;50.974;10.322;2024-02-26T08:02:21;96729.72;;;4.22;100.00
72721;BME280;60835;50.974;10.322;2024-02-26T08:04:54;96773.16;;;4.82;100.00
72721;BME280;60835;50.974;10.322;2024-02-26T08:07:28;96799.78;;;5.12;100.00
72721;BME280;60835;50.974;10.322;2024-02-26T08:09:55;96821.19;;;5.65;100.00
72721;BME280;60835;50.974;10.322;2024-02-26T08:12:37;96836.28;;;5.71;100.00
72721;BME280;60835;50.974;10.322;2024-02-26T08:15:12;96848.41;;;5.72;100.00
72721;BME280;60835;50.974;10.322;2024-02-26T08:18:02;96855.34;;;5.97;100.00
72721;BME280;60835;50.974;10.322;2024-02-26T08:20:36;96861.16;;;5.59;100.00
72721;BME280;60835;50.974;10.322;2024-02-26T08:23:08;96858.63;;;5.99;100.00
72721;BME280;60835;50.974;10.322;2024-02-26T08:25:36;96850.25;;;6.12;100.00
72721;BME280;60835;50.974;10.322;2024-02-26T08:28:12;96856.97;;;6.06;100.00
72721;BME280;60835;50.974;10.322;2024-02-26T08:30:42;96867.50;;;5.90;100.00
72721;BME280;60835;50.974;10.322;2024-02-26T08:36:48;96866.75;;;5.48;100.00
72721;BME280;60835;50.974;10.322;2024-02-26T08:39:16;96877.25;;;5.48;100.00
72721;BME280;60835;50.974;10.322;2024-02-26T08:41:48;96871.34;;;5.62;100.00
72721;BME280;60835;50.974;10.322;2024-02-26T08:44:28;96852.31;;;5.44;100.00
72721;BME280;60835;50.974;10.322;2024-02-26T08:47:02;96863.34;;;5.80;100.00
72721;BME280;60835;50.974;10.322;2024-02-26T08:49:29;96873.00;;;5.63;100.00
72721;BME280;60835;50.974;10.322;2024-02-26T08:52:02;96878.88;;;5.57;100.00
72721;BME280;60835;50.974;10.322;2024-02-26T08:54:45;96876.78;;;5.61;100.00
72721;BME280;60835;50.974;10.322;2024-02-26T08:57:23;96885.50;;;5.27;100.00
72721;BME280;60835;50.974;10.322;2024-02-26T08:59:58;96872.41;;;5.27;100.00
72721;BME280;60835;50.974;10.322;2024-02-26T09:02:37;96872.44;;;5.35;100.00
72721;BME280;60835;50.974;10.322;2024-02-26T09:05:09;96876.16;;;5.25;100.00
72721;BME280;60835;50.974;10.322;2024-02-26T09:07:48;96875.88;;;5.36;100.00
72721;BME280;60835;50.974;10.322;2024-02-26T09:10:20;96865.72;;;5.41;100.00
72721;BME280;60835;50.974;10.322;2024-02-26T09:12:53;96853.81;;;5.63;100.00
72721;BME280;60835;50.974;10.322;2024-02-26T09:15:24;96850.34;;;5.54;100.00
72721;BME280;60835;50.974;10.322;2024-02-26T09:17:51;96848.38;;;5.56;100.00
72721;BME280;60835;50.974;10.322;2024-02-26T09:20:22;96843.16;;;5.48;100.00
72721;BME280;60835;50.974;10.322;2024-02-26T09:22:54;96838.28;;;5.85;100.00
72721;BME280;60835;50.974;10.322;2024-02-26T09:25:23;96833.19;;;5.92;100.00
72721;BME280;60835;50.974;10.322;2024-02-26T09:27:55;96844.53;;;5.92;100.00
72721;BME280;60835;50.974;10.322;2024-02-26T09:30:55;96824.66;;;6.22;100.00
72721;BME280;60835;50.974;10.322;2024-02-26T09:33:27;96851.06;;;5.96;100.00
72721;BME280;60835;50.974;10.322;2024-02-26T09:35:58;96839.28;;;6.08;100.00
72721;BME280;60835;50.974;10.322;2024-02-26T09:38:27;96861.09;;;5.93;100.00
72721;BME280;60835;50.974;10.322;2024-02-26T09:41:16;96858.31;;;6.02;100.00
72721;BME280;60835;50.974;10.322;2024-02-26T09:44:50;96846.13;;;6.26;100.00
72721;BME280;60835;50.974;10.322;2024-02-26T09:47:11;96843.66;;;6.48;100.00
72721;BME280;60835;50.974;10.322;2024-02-26T09:49:57;96854.66;;;6.44;100.00
72721;BME280;60835;50.974;10.322;2024-02-26T09:52:34;96859.28;;;6.18;100.00
72721;BME280;60835;50.974;10.322;2024-02-26T09:55:24;96855.34;;;6.30;100.00
72721;BME280;60835;50.974;10.322;2024-02-26T09:57:53;96842.97;;;7.09;100.00
72721;BME280;60835;50.974;10.322;2024-02-26T10:00:28;96861.19;;;6.64;100.00
72721;BME280;60835;50.974;10.322;2024-02-26T10:03:11;96858.06;;;7.07;100.00
72721;BME280;60835;50.974;10.322;2024-02-26T10:06:02;96825.22;;;7.65;100.00
72721;BME280;60835;50.974;10.322;2024-02-26T10:08:34;96711.97;;;8.39;100.00
72721;BME280;60835;50.974;10.322;2024-02-26T10:11:16;96614.78;;;8.15;100.00
72721;BME280;60835;50.974;10.322;2024-02-26T10:13:47;96690.97;;;7.50;100.00
72721;BME280;60835;50.974;10.322;2024-02-26T10:16:17;96663.34;;;7.98;100.00
72721;BME280;60835;50.974;10.322;2024-02-26T10:18:57;96648.50;;;7.53;100.00
72721;BME280;60835;50.974;10.322;2024-02-26T10:21:27;96650.75;;;8.23;100.00
72721;BME280;60835;50.974;10.322;2024-02-26T10:23:59;96619.66;;;7.89;100.00
72721;BME280;60835;50.974;10.322;2024-02-26T10:26:32;96623.69;;;7.85;100.00
72721;BME280;60835;50.974;10.322;2024-02-26T10:29:13;96602.69;;;8.06;100.00
72721;BME280;60835;50.974;10.322;2024-02-26T10:31:44;96630.72;;;7.55;100.00
72721;BME280;60835;50.974;10.322;2024-02-26T10:34:25;96597.56;;;7.83;100.00
72721;BME280;60835;50.974;10.322;2024-02-26T10:36:57;96602.16;;;7.96;100.00
72721;BME280;60835;50.974;10.322;2024-02-26T10:39:47;96561.47;;;8.13;100.00
72721;BME280;60835;50.974;10.322;2024-02-26T10:42:15;96570.03;;;7.86;100.00
72721;BME280;60835;50.974;10.322;2024-02-26T10:45:10;96618.75;;;7.53;100.00
72721;BME280;60835;50.974;10.322;2024-02-26T10:47:40;96645.34;;;7.58;100.00
72721;BME280;60835;50.974;10.322;2024-02-26T10:50:12;96621.25;;;7.83;100.00
72721;BME280;60835;50.974;10.322;2024-02-26T10:52:44;96603.06;;;8.03;100.00
72721;BME280;60835;50.974;10.322;2024-02-26T10:55:16;96606.41;;;7.68;100.00
72721;BME280;60835;50.974;10.322;2024-02-26T11:00:33;96568.41;;;7.85;100.00
72721;BME280;60835;50.974;10.322;2024-02-26T11:03:06;96536.47;;;8.24;100.00
72721;BME280;60835;50.974;10.322;2024-02-26T11:05:41;96544.59;;;7.93;100.00
72721;BME280;60835;50.974;10.322;2024-02-26T11:08:13;96535.16;;;8.49;100.00
72721;BME280;60835;50.974;10.322;2024-02-26T11:10:53;96558.03;;;7.98;100.00
72721;BME280;60835;50.974;10.322;2024-02-26T11:13:23;96587.63;;;8.00;100.00
72721;BME280;60835;50.974;10.322;2024-02-26T11:15:57;96610.88;;;7.82;100.00
72721;BME280;60835;50.974;10.322;2024-02-26T11:18:32;96639.84;;;7.67;100.00
72721;BME280;60835;50.974;10.322;2024-02-26T11:21:07;96661.72;;;7.45;100.00
72721;BME280;60835;50.974;10.322;2024-02-26T11:23:39;96689.34;;;7.49;100.00
72721;BME280;60835;50.974;10.322;2024-02-26T11:26:34;96690.25;;;7.33;100.00
72721;BME280;60835;50.974;10.322;2024-02-26T11:29:08;96682.38;;;7.71;100.00
72721;BME280;60835;50.974;10.322;2024-02-26T11:32:01;96693.88;;;7.55;100.00
72721;BME280;60835;50.974;10.322;2024-02-26T11:34:41;96705.59;;;7.30;100.00
72721;BME280;60835;50.974;10.322;2024-02-26T11:37:16;96709.44;;;7.42;100.00
72721;BME280;60835;50.974;10.322;2024-02-26T11:39:48;96718.81;;;7.22;100.00
72721;BME280;60835;50.974;10.322;2024-02-26T11:42:23;96716.00;;;7.23;100.00
72721;BME280;60835;50.974;10.322;2024-02-26T11:48:28;96733.66;;;7.38;100.00
72721;BME280;60835;50.974;10.322;2024-02-26T11:50:57;96726.28;;;7.56;100.00
72721;BME280;60835;50.974;10.322;2024-02-26T11:53:30;96689.56;;;7.77;100.00
72721;BME280;60835;50.974;10.322;2024-02-26T11:59:10;96762.88;;;7.43;100.00
72721;BME280;60835;50.974;10.322;2024-02-26T12:01:48;96731.06;;;7.52;100.00
72721;BME280;60835;50.974;10.322;2024-02-26T12:04:37;96747.91;;;7.43;100.00
72721;BME280;60835;50.974;10.322;2024-02-26T12:07:27;96738.03;;;7.22;100.00
72721;BME280;60835;50.974;10.322;2024-02-26T12:10:44;96747.09;;;7.20;100.00
72721;BME280;60835;50.974;10.322;2024-02-26T12:13:32;96736.44;;;7.36;100.00
72721;BME280;60835;50.974;10.322;2024-02-26T12:16:07;96749.53;;;7.21;100.00
72721;BME280;60835;50.974;10.322;2024-02-26T12:18:40;96767.66;;;7.16;100.00
72721;BME280;60835;50.974;10.322;2024-02-26T12:21:11;96752.00;;;7.46;100.00
72721;BME280;60835;50.974;10.322;2024-02-26T12:24:06;96758.78;;;7.17;100.00
72721;BME280;60835;50.974;10.322;2024-02-26T12:26:45;96766.19;;;7.36;100.00
72721;BME280;60835;50.974;10.322;2024-02-26T12:29:15;96753.72;;;7.08;100.00
72721;BME280;60835;50.974;10.322;2024-02-26T12:31:44;96767.56;;;7.32;100.00
72721;BME280;60835;50.974;10.322;2024-02-26T12:34:27;96771.84;;;7.25;100.00
72721;BME280;60835;50.974;10.322;2024-02-26T12:37:16;96768.69;;;7.38;100.00
72721;BME280;60835;50.974;10.322;2024-02-26T12:39:56;96745.28;;;7.43;100.00
72721;BME280;60835;50.974;10.322;2024-02-26T12:42:33;96745.50;;;7.56;100.00
72721;BME280;60835;50.974;10.322;2024-02-26T12:45:13;96743.00;;;7.40;100.00
72721;BME280;60835;50.974;10.322;2024-02-26T12:47:43;96736.72;;;7.64;100.00
72721;BME280;60835;50.974;10.322;2024-02-26T12:50:26;96717.84;;;7.60;100.00
72721;BME280;60835;50.974;10.322;2024-02-26T12:53:27;96738.56;;;7.41;100.00
72721;BME280;60835;50.974;10.322;2024-02-26T12:55:59;96747.88;;;7.20;100.00
72721;BME280;60835;50.974;10.322;2024-02-26T12:58:38;96760.16;;;7.05;100.00
72721;BME280;60835;50.974;10.322;2024-02-26T13:01:35;96770.00;;;7.34;100.00
72721;BME280;60835;50.974;10.322;2024-02-26T13:04:04;96772.78;;;7.10;100.00
72721;BME280;60835;50.974;10.322;2024-02-26T13:06:56;96775.34;;;7.18;100.00
72721;BME280;60835;50.974;10.322;2024-02-26T13:09:33;96785.50;;;6.98;100.00
72721;BME280;60835;50.974;10.322;2024-02-26T13:12:15;96795.22;;;7.20;100.00
72721;BME280;60835;50.974;10.322;2024-02-26T13:15:06;96808.78;;;7.09;100.00
72721;BME280;60835;50.974;10.322;2024-02-26T13:17:36;96807.69;;;6.96;100.00
72721;BME280;60835;50.974;10.322;2024-02-26T13:20:11;96806.38;;;7.30;100.00
72721;BME280;60835;50.974;10.322;2024-02-26T13:23:10;96812.41;;;7.08;100.00
72721;BME280;60835;50.974;10.322;2024-02-26T13:25:40;96792.34;;;7.07;100.00
72721;BME280;60835;50.974;10.322;2024-02-26T13:28:17;96807.88;;;7.25;100.00
72721;BME280;60835;50.974;10.322;2024-02-26T13:31:09;96807.34;;;7.29;100.00
72721;BME280;60835;50.974;10.322;2024-02-26T13:33:40;96814.16;;;7.16;100.00
72721;BME280;60835;50.974;10.322;2024-02-26T13:39:22;96822.84;;;7.24;100.00
72721;BME280;60835;50.974;10.322;2024-02-26T13:41:51;96819.19;;;7.25;100.00
72721;BME280;60835;50.974;10.322;2024-02-26T13:44:31;96813.16;;;7.48;100.00
72721;BME280;60835;50.974;10.322;2024-02-26T13:47:13;96800.28;;;7.53;100.00